Time;durP1;ratioP1;P1;durP2;ratioP2;P2;SDS_P1;SDS_P2;PMS_P1;PMS_P2;Temp;Humidity;BMP_temperature;BMP_pressure;BME280_temperature;BME280_humidity;BME280_pressure;Samples;Min_cycle;Max_cycle;Signal;HPM_P1;HPM_P2
2023/07/06 00:00:06;;;;;;;;;6.75;5.00;;;;;-146.67;41.79;74897.22;5123260;27;61810;-85
2023/07/06 00:02:31;;;;;;;;;7.25;3.00;;;;;-146.67;41.85;74907.22;5122189;27;62027;-85
2023/07/06 00:04:57;;;;;;;;;3.00;3.00;;;;;-146.67;41.79;74899.22;5121679;27;61796;-85
2023/07/06 00:07:22;;;;;;;;;5.00;5.00;;;;;-146.67;41.89;74893.22;5123069;27;61965;-85
2023/07/06 00:09:49;;;;;;;;;3.75;3.75;;;;;-146.67;41.66;74903.22;5108368;27;61866;-85
2023/07/06 00:12:15;;;;;;;;;7.50;5.00;;;;;-146.67;41.84;74923.19;5102926;27;61773;-85
2023/07/06 00:14:40;;;;;;;;;5.25;5.00;;;;;-146.67;42.00;74935.16;5103143;27;61829;-85
2023/07/06 00:17:12;;;;;;;;;4.00;3.75;;;;;-146.67;42.08;74939.16;5101560;27;62775;-85
2023/07/06 00:19:39;;;;;;;;;8.25;5.50;;;;;-146.67;41.91;74925.19;5102155;27;62019;-85
2023/07/06 00:22:04;;;;;;;;;3.00;1.50;;;;;-146.67;42.13;74921.19;5102630;27;61719;-85
2023/07/06 00:24:30;;;;;;;;;8.50;5.25;;;;;-146.67;41.84;74923.19;5102876;27;61901;-85
2023/07/06 00:26:56;;;;;;;;;4.75;4.00;;;;;-146.67;41.68;74925.19;5100694;27;63834;-85
2023/07/06 00:29:21;;;;;;;;;7.00;4.25;;;;;-146.67;41.41;74941.16;5102520;27;61749;-85
2023/07/06 00:32:03;;;;;;;;;4.75;4.00;;;;;-146.67;41.79;74939.16;5101362;27;61920;-85
2023/07/06 00:34:35;;;;;;;;;3.25;3.25;;;;;-146.67;41.62;74951.13;5102329;27;61696;-86
2023/07/06 00:37:03;;;;;;;;;5.00;4.00;;;;;-146.67;42.03;74963.13;5101839;27;61993;-85
2023/07/06 00:39:28;;;;;;;;;4.50;3.50;;;;;-146.67;41.74;74965.09;5101106;27;61998;-85
2023/07/06 00:41:54;;;;;;;;;6.50;5.00;;;;;-146.67;41.88;74969.09;5101234;27;61908;-86
2023/07/06 00:44:47;;;;;;;;;9.00;8.00;;;;;-146.67;41.77;74973.09;5102611;27;62086;-86
2023/07/06 00:47:13;;;;;;;;;3.50;3.50;;;;;-146.67;42.21;74969.09;5095334;27;64779;-85
2023/07/06 00:49:40;;;;;;;;;7.00;5.25;;;;;-146.67;42.36;74987.06;5102955;27;61800;-85
2023/07/06 00:52:07;;;;;;;;;3.00;3.00;;;;;-146.67;42.15;74991.06;5106055;27;61756;-85
2023/07/06 00:54:37;;;;;;;;;7.00;3.00;;;;;-146.67;42.06;74995.06;5104704;27;61862;-85
2023/07/06 00:57:04;;;;;;;;;7.50;5.00;;;;;-146.67;42.20;75011.03;5103701;27;64133;-85
2023/07/06 00:59:30;;;;;;;;;4.50;4.25;;;;;-146.67;42.40;75025.00;5105725;27;61876;-85
2023/07/06 01:01:59;;;;;;;;;6.25;5.00;;;;;-146.67;42.46;75011.03;5104516;27;61762;-85
2023/07/06 01:04:28;;;;;;;;;4.75;3.00;;;;;-146.67;42.43;75011.03;5105299;27;61780;-85
2023/07/06 01:06:54;;;;;;;;;7.25;4.00;;;;;-146.67;42.49;75005.03;5105282;27;62357;-85
2023/07/06 01:09:21;;;;;;;;;6.50;3.00;;;;;-146.67;42.39;75003.03;5107045;27;61944;-85
2023/07/06 01:11:47;;;;;;;;;9.25;3.75;;;;;-146.67;42.50;74997.06;5105672;27;61894;-86
2023/07/06 01:14:14;;;;;;;;;7.00;6.00;;;;;-146.67;42.40;75009.03;5105756;27;61880;-85
2023/07/06 01:16:50;;;;;;;;;5.50;5.00;;;;;-146.67;42.58;75017.03;5104591;27;63147;-85
2023/07/06 01:19:53;;;;;;;;;8.00;5.00;;;;;-146.67;42.28;75029.00;5103458;27;62242;-85
2023/07/06 01:22:30;;;;;;;;;5.00;5.00;;;;;-146.67;42.40;75033.00;5105365;27;61857;-85
2023/07/06 01:25:14;;;;;;;;;6.00;5.25;;;;;-146.67;42.74;75039.00;5105647;27;62058;-85
2023/07/06 01:27:42;;;;;;;;;6.25;5.00;;;;;-146.67;42.27;75037.00;5103495;27;65171;-85
2023/07/06 01:30:26;;;;;;;;;8.00;5.50;;;;;-146.67;42.55;75035.00;5105305;27;61868;-85
2023/07/06 01:32:58;;;;;;;;;6.25;4.25;;;;;-146.67;42.51;75039.00;5105102;27;61908;-85
2023/07/06 01:35:41;;;;;;;;;5.00;5.00;;;;;-146.67;42.58;75044.97;5121279;27;62037;-85
2023/07/06 01:38:06;;;;;;;;;5.50;4.25;;;;;-146.67;42.67;75044.97;5103313;27;63606;-85
2023/07/06 01:40:34;;;;;;;;;8.00;5.00;;;;;-146.67;42.73;75039.00;5103588;27;62036;-85
2023/07/06 01:42:59;;;;;;;;;4.25;4.25;;;;;-146.67;42.77;75037.00;5103736;27;61924;-85
2023/07/06 01:45:25;;;;;;;;;7.75;5.50;;;;;-146.67;42.82;75035.00;5111186;27;61800;-85
2023/07/06 01:48:00;;;;;;;;;3.25;3.25;;;;;-146.67;42.93;75048.97;5121557;27;63939;-85
2023/07/06 01:50:44;;;;;;;;;6.25;5.00;;;;;-146.67;42.74;75042.97;5123618;27;62093;-85
2023/07/06 01:53:12;;;;;;;;;7.25;5.50;;;;;-146.67;42.82;75040.97;5124702;27;62019;-85
2023/07/06 01:56:01;;;;;;;;;4.00;4.00;;;;;-146.67;42.88;75039.00;5123124;27;61969;-85
2023/07/06 01:58:37;;;;;;;;;9.25;4.00;;;;;-146.67;43.05;75039.00;5124508;27;62884;-85
2023/07/06 02:01:10;;;;;;;;;6.00;4.00;;;;;-146.67;43.25;75044.97;5122931;27;62348;-85
2023/07/06 02:03:38;;;;;;;;;7.25;4.25;;;;;-146.67;43.16;75046.97;5123507;27;61884;-85
2023/07/06 02:06:07;;;;;;;;;4.00;4.00;;;;;-146.67;43.28;75044.97;5124441;27;61787;-85
2023/07/06 02:08:33;;;;;;;;;7.50;3.50;;;;;-146.67;43.38;75042.97;5120281;27;62798;-85
2023/07/06 02:11:01;;;;;;;;;5.25;4.25;;;;;-146.67;43.20;75052.97;5104684;27;61726;-85
2023/07/06 02:13:26;;;;;;;;;6.50;5.25;;;;;-146.67;43.22;75048.97;5103226;27;61829;-85
2023/07/06 02:15:52;;;;;;;;;4.00;4.00;;;;;-146.67;43.05;75052.97;5103242;27;61910;-85
2023/07/06 02:18:17;;;;;;;;;5.25;5.25;;;;;-146.67;43.13;75050.97;5103584;27;62292;-85
2023/07/06 02:20:45;;;;;;;;;6.00;6.00;;;;;-146.67;43.11;75050.97;5104408;27;62146;-85
2023/07/06 02:23:11;;;;;;;;;6.25;4.75;;;;;-146.67;43.19;75056.97;5103042;27;61912;-85
2023/07/06 02:25:37;;;;;;;;;5.75;4.00;;;;;-146.67;43.05;75066.94;5104392;27;63252;-85
2023/07/06 02:28:02;;;;;;;;;6.75;6.00;;;;;-146.67;43.30;75068.94;5102652;27;63597;-85
2023/07/06 02:30:28;;;;;;;;;5.00;5.00;;;;;-146.67;43.49;75062.94;5103757;27;61803;-85
2023/07/06 02:32:54;;;;;;;;;7.00;6.00;;;;;-146.67;43.46;75056.97;5104536;27;62002;-85
2023/07/06 02:35:19;;;;;;;;;6.25;6.00;;;;;-146.67;43.55;75062.94;5104451;27;61703;-85
2023/07/06 02:37:44;;;;;;;;;6.50;4.25;;;;;-146.67;43.58;75062.94;5103547;27;62946;-85
2023/07/06 02:40:11;;;;;;;;;5.75;4.50;;;;;-146.67;43.49;75064.94;5104364;27;61880;-85
2023/07/06 02:42:41;;;;;;;;;6.00;5.00;;;;;-146.67;43.32;75064.94;5103988;27;61852;-85
2023/07/06 02:45:07;;;;;;;;;4.00;4.00;;;;;-146.67;43.37;75078.91;5102680;27;61898;-86
2023/07/06 02:47:32;;;;;;;;;9.00;6.75;;;;;-146.67;43.59;75092.91;5103014;27;61718;-86
2023/07/06 02:49:58;;;;;;;;;7.00;6.00;;;;;-146.67;43.85;75102.88;5103744;27;61917;-85
2023/07/06 02:52:24;;;;;;;;;6.00;5.00;;;;;-146.67;43.87;75112.88;5102801;27;61805;-85
2023/07/06 02:54:49;;;;;;;;;10.00;7.50;;;;;-146.67;43.97;75118.84;5102559;27;61744;-85
2023/07/06 02:57:14;;;;;;;;;6.50;6.00;;;;;-146.67;43.81;75110.88;5103347;27;61863;-85
2023/07/06 02:59:40;;;;;;;;;8.00;8.00;;;;;-146.67;43.84;75114.88;5103324;27;61631;-85
2023/07/06 03:02:06;;;;;;;;;6.00;4.25;;;;;-146.67;43.81;75114.88;5102659;27;61752;-85
2023/07/06 03:04:32;;;;;;;;;7.25;7.25;;;;;-146.67;43.72;75126.84;5102008;27;61884;-85
2023/07/06 03:06:57;;;;;;;;;7.25;6.25;;;;;-146.67;44.00;75116.84;5101729;27;63784;-85
2023/07/06 03:09:26;;;;;;;;;7.50;7.00;;;;;-146.67;43.84;75108.88;5111769;27;61711;-85
2023/07/06 03:11:52;;;;;;;;;5.75;5.75;;;;;-146.67;43.75;75098.88;5101417;27;61984;-85
2023/07/06 03:14:25;;;;;;;;;5.00;3.75;;;;;-146.67;43.48;75108.88;5102293;27;62241;-86
2023/07/06 03:16:53;;;;;;;;;9.75;5.50;;;;;-146.67;43.72;75118.84;5102403;27;62773;-85
2023/07/06 03:19:19;;;;;;;;;3.50;3.50;;;;;-146.67;43.79;75114.88;5102672;27;61827;-85
2023/07/06 03:21:44;;;;;;;;;6.25;5.00;;;;;-146.67;43.73;75112.88;5101846;27;61965;-85
2023/07/06 03:24:10;;;;;;;;;4.75;4.75;;;;;-146.67;43.62;75106.88;5102487;27;61773;-85
2023/07/06 03:26:36;;;;;;;;;6.75;6.00;;;;;-146.67;43.81;75104.88;5102859;27;62085;-85
2023/07/06 03:29:04;;;;;;;;;8.25;4.00;;;;;-146.67;43.72;75104.88;5103141;27;61819;-85
2023/07/06 03:31:32;;;;;;;;;12.50;9.25;;;;;-146.67;43.93;75114.88;5102502;27;62091;-85
2023/07/06 03:33:57;;;;;;;;;11.50;9.50;;;;;-146.67;44.04;75116.84;5101874;27;61835;-85
2023/07/06 03:36:22;;;;;;;;;9.00;7.50;;;;;-146.67;43.95;75112.88;5101323;27;63453;-85
2023/07/06 03:38:49;;;;;;;;;13.25;9.75;;;;;-146.67;44.14;75122.84;5103256;27;61809;-85
2023/07/06 03:41:19;;;;;;;;;7.75;7.75;;;;;-146.67;44.08;75126.84;5102146;27;61967;-85
2023/07/06 03:43:45;;;;;;;;;6.50;4.00;;;;;-146.67;43.92;75122.84;5086721;27;61843;-85
2023/07/06 03:46:12;;;;;;;;;8.00;5.50;;;;;-146.67;43.93;75118.84;5082373;27;61915;-85
2023/07/06 03:48:40;;;;;;;;;7.00;5.75;;;;;-146.67;43.87;75122.84;5080914;27;62226;-85
2023/07/06 03:51:07;;;;;;;;;10.25;7.25;;;;;-146.67;44.02;75126.84;5082594;27;61713;-85
2023/07/06 03:53:35;;;;;;;;;7.00;2.25;;;;;-146.67;43.96;75122.84;5082795;27;61829;-85
2023/07/06 03:56:01;;;;;;;;;11.75;7.00;;;;;-146.67;44.14;75126.84;5082195;27;63116;-85
2023/07/06 03:58:27;;;;;;;;;5.00;4.50;;;;;-146.67;44.35;75128.84;5080815;28;61854;-86
2023/07/06 04:00:52;;;;;;;;;6.00;6.00;;;;;-146.67;44.24;75130.84;5082416;27;62035;-85
2023/07/06 04:03:18;;;;;;;;;5.00;5.00;;;;;-146.67;44.44;75138.81;5082849;28;61905;-85
2023/07/06 04:05:47;;;;;;;;;7.25;6.25;;;;;-146.67;44.09;75126.84;5081562;27;63090;-85
2023/07/06 04:08:18;;;;;;;;;6.00;4.25;;;;;-146.67;44.11;75136.81;5082617;27;62093;-85
2023/07/06 04:10:44;;;;;;;;;7.00;6.00;;;;;-146.67;44.20;75136.81;5100421;27;61948;-85
2023/07/06 04:13:10;;;;;;;;;5.25;5.00;;;;;-146.67;44.19;75134.81;5103168;27;61745;-86
2023/07/06 04:15:38;;;;;;;;;5.50;4.25;;;;;-146.67;44.26;75134.81;5101359;27;63867;-85
2023/07/06 04:18:05;;;;;;;;;7.00;6.50;;;;;-146.67;44.35;75134.81;5100871;27;62042;-85
2023/07/06 04:20:34;;;;;;;;;8.00;6.00;;;;;-146.67;44.62;75132.84;5101366;27;62025;-85
2023/07/06 04:22:59;;;;;;;;;4.25;4.25;;;;;-146.67;44.45;75130.84;5104744;27;62204;-85
2023/07/06 04:25:29;;;;;;;;;5.75;4.25;;;;;-146.67;44.12;75124.84;5104235;27;63739;-85
2023/07/06 04:27:56;;;;;;;;;8.25;4.25;;;;;-146.67;44.11;75120.84;5105016;27;62018;-85
2023/07/06 04:30:22;;;;;;;;;7.25;5.00;;;;;-146.67;44.19;75120.84;5105136;27;61999;-85
2023/07/06 04:32:49;;;;;;;;;8.50;5.00;;;;;-146.67;44.27;75116.84;5106486;27;62215;-85
2023/07/06 04:35:18;;;;;;;;;8.00;6.75;;;;;-146.67;44.11;75112.88;5104222;27;64692;-85
2023/07/06 04:37:45;;;;;;;;;4.25;3.75;;;;;-146.67;44.00;75108.88;5106347;27;61938;-86
2023/07/06 04:40:13;;;;;;;;;9.75;9.00;;;;;-146.67;43.94;75098.88;5105842;27;61807;-85
2023/07/06 04:42:40;;;;;;;;;8.00;8.00;;;;;-146.67;43.79;75108.88;5105199;27;62103;-86
2023/07/06 04:45:10;;;;;;;;;5.25;5.25;;;;;-146.67;44.01;75114.88;5105303;27;62103;-86
2023/07/06 04:47:39;;;;;;;;;7.75;7.25;;;;;-146.67;44.01;75124.84;5104184;27;61963;-85
2023/07/06 04:50:10;;;;;;;;;11.50;6.25;;;;;-146.67;44.20;75130.84;5105896;27;61925;-85
2023/07/06 04:52:37;;;;;;;;;6.00;6.00;;;;;-146.67;44.07;75136.81;5106274;27;61988;-86
2023/07/06 04:55:10;;;;;;;;;5.75;5.75;;;;;-146.67;44.28;75138.81;5103364;27;63669;-85
2023/07/06 04:57:36;;;;;;;;;9.50;4.00;;;;;-146.67;44.27;75136.81;5105896;27;61867;-86
2023/07/06 05:00:12;;;;;;;;;10.75;6.50;;;;;-146.67;44.28;75130.84;5105870;27;61817;-86
2023/07/06 05:02:38;;;;;;;;;6.50;4.75;;;;;-146.67;44.11;75130.84;5104715;27;61974;-86
2023/07/06 05:05:03;;;;;;;;;7.50;6.00;;;;;-146.67;44.24;75144.81;5104724;27;62175;-86
2023/07/06 05:07:30;;;;;;;;;7.75;6.25;;;;;-146.67;44.31;75136.81;5104057;27;61885;-86
2023/07/06 05:09:56;;;;;;;;;12.25;8.00;;;;;-146.67;44.33;75132.84;5103772;27;61960;-86
2023/07/06 05:12:21;;;;;;;;;15.50;9.25;;;;;-146.67;44.16;75124.84;5105374;27;61725;-87
2023/07/06 05:14:47;;;;;;;;;12.25;9.75;;;;;-146.67;44.18;75124.84;5103702;27;63812;-86
2023/07/06 05:17:12;;;;;;;;;9.25;9.25;;;;;-146.67;44.17;75112.88;5103552;27;61948;-86
2023/07/06 05:19:38;;;;;;;;;9.00;7.75;;;;;-146.67;43.96;75092.91;5105239;27;61791;-82
2023/07/06 05:22:04;;;;;;;;;12.00;7.75;;;;;-146.67;43.68;75094.91;5105851;27;61817;-87
2023/07/06 05:24:30;;;;;;;;;8.75;8.75;;;;;-146.67;43.71;75082.91;5103156;27;63998;-86
2023/07/06 05:26:55;;;;;;;;;10.25;8.00;;;;;-146.67;43.54;75072.94;5103815;27;61798;-87
2023/07/06 05:29:21;;;;;;;;;12.25;8.25;;;;;-146.67;43.36;75066.94;5105406;27;61788;-76
2023/07/06 05:31:48;;;;;;;;;12.00;9.00;;;;;-146.67;43.36;75058.94;5105480;27;61756;-76
2023/07/06 05:34:14;;;;;;;;;9.75;8.75;;;;;-146.67;43.29;75040.97;5103699;27;61855;-86
2023/07/06 05:36:39;;;;;;;;;10.50;9.00;;;;;-146.67;43.03;75015.03;5104630;27;61889;-87
2023/07/06 05:39:06;;;;;;;;;10.75;8.50;;;;;-146.67;42.11;74957.13;5103021;27;61741;-87
2023/07/06 05:41:32;;;;;;;;;11.00;9.75;;;;;-146.67;41.61;74889.22;5103873;27;62020;-87
2023/07/06 05:43:58;;;;;;;;;8.75;7.50;;;;;-146.67;40.99;74819.34;5104344;27;61818;-84
2023/07/06 05:46:24;;;;;;;;;6.25;5.00;;;;;-146.67;40.13;74727.50;5104479;27;62252;-85
2023/07/06 05:48:50;;;;;;;;;10.75;8.00;;;;;-146.67;39.23;74645.66;5105576;27;61900;-82
2023/07/06 05:51:16;;;;;;;;;10.25;9.50;;;;;-146.67;38.08;74595.75;5097849;27;61902;-85
2023/07/06 05:53:41;;;;;;;;;8.00;8.00;;;;;-146.67;38.23;74579.78;5096711;27;63897;-90
2023/07/06 05:56:07;;;;;;;;;7.75;7.00;;;;;-146.67;38.07;74561.81;5102284;27;61852;-91
2023/07/06 05:58:34;;;;;;;;;7.00;7.00;;;;;-146.67;36.93;74513.88;5102795;27;61848;-90
2023/07/06 06:01:00;;;;;;;;;6.75;6.75;;;;;-146.67;37.26;74521.88;5102565;27;62235;-90
2023/07/06 06:03:26;;;;;;;;;10.00;8.75;;;;;-146.67;37.24;74539.84;5102215;27;62056;-90
2023/07/06 06:05:53;;;;;;;;;6.75;6.00;;;;;-146.67;37.63;74543.84;5102158;27;62025;-90
2023/07/06 06:08:19;;;;;;;;;6.00;6.00;;;;;-146.67;37.58;74537.84;5101826;27;61975;-90
2023/07/06 06:10:45;;;;;;;;;10.00;6.25;;;;;-146.67;37.30;74521.88;5104899;27;61755;-91
2023/07/06 06:13:11;;;;;;;;;7.00;5.00;;;;;-146.67;37.39;74547.81;5102135;27;62187;-87
2023/07/06 06:15:37;;;;;;;;;10.50;9.50;;;;;-146.67;37.38;74565.78;5102449;27;61841;-82
2023/07/06 06:18:03;;;;;;;;;10.50;8.75;;;;;-146.67;37.29;74575.78;5103613;27;61800;-82
2023/07/06 06:20:30;;;;;;;;;6.00;6.00;;;;;-146.67;37.31;74575.78;5102680;27;62161;-81
2023/07/06 06:22:56;;;;;;;;;5.75;5.75;;;;;-146.67;37.18;74559.81;5103173;27;63290;-82
2023/07/06 06:25:22;;;;;;;;;7.25;5.25;;;;;-146.67;37.37;74523.88;5103586;27;61863;-82
2023/07/06 06:27:47;;;;;;;;;5.00;5.00;;;;;-146.67;36.82;74454.00;5102591;27;61818;-82
2023/07/06 06:30:14;;;;;;;;;5.50;4.25;;;;;-146.67;35.18;74328.22;5102925;27;61854;-81
2023/07/06 06:32:40;;;;;;;;;5.00;4.00;;;;;-146.67;34.10;74206.44;5102104;27;63733;-81
2023/07/06 06:35:23;;;;;;;;;3.50;3.50;;;;;-146.67;34.05;74218.41;5103746;27;62277;-84
2023/07/06 06:37:49;;;;;;;;;4.00;3.75;;;;;-146.67;33.60;74176.50;5103417;27;62008;-86
2023/07/06 06:40:15;;;;;;;;;5.50;5.50;;;;;-146.67;33.71;74258.34;5102856;27;61901;-85
2023/07/06 06:42:41;;;;;;;;;5.75;5.00;;;;;-146.67;33.98;74336.19;5117056;27;63756;-84
2023/07/06 06:45:07;;;;;;;;;6.00;5.00;;;;;-146.67;35.13;74378.13;5122645;27;62056;-81
2023/07/06 06:47:32;;;;;;;;;6.00;4.00;;;;;-146.67;35.16;74412.06;5107760;27;61768;-83
2023/07/06 06:49:58;;;;;;;;;4.75;4.75;;;;;-146.67;35.45;74448.00;5103480;27;61872;-85
2023/07/06 06:52:26;;;;;;;;;5.25;4.75;;;;;-146.67;35.82;74475.94;5118208;27;64529;-85
2023/07/06 06:54:52;;;;;;;;;6.00;4.75;;;;;-146.67;36.17;74483.94;5101903;27;61943;-85
2023/07/06 06:57:20;;;;;;;;;6.00;4.75;;;;;-146.67;36.10;74503.91;5103806;27;61978;-85
2023/07/06 06:59:47;;;;;;;;;2.75;2.00;;;;;-146.67;36.42;74517.88;5102337;27;61803;-85
2023/07/06 07:02:14;;;;;;;;;4.00;4.00;;;;;-146.67;36.15;74523.88;5101756;27;64844;-84
2023/07/06 07:04:39;;;;;;;;;4.25;4.25;;;;;-146.67;36.30;74529.84;5102719;27;62087;-84
2023/07/06 07:07:04;;;;;;;;;10.00;10.00;;;;;-146.67;36.41;74541.84;5103375;27;62238;-84
2023/07/06 07:09:32;;;;;;;;;9.25;4.25;;;;;-146.67;36.25;74551.81;5102619;27;62066;-84
2023/07/06 07:11:57;;;;;;;;;5.75;3.00;;;;;-146.67;36.13;74555.81;5101097;27;63866;-85
2023/07/06 07:14:23;;;;;;;;;4.50;3.75;;;;;-146.67;36.09;74559.81;5101243;27;61817;-84
2023/07/06 07:16:48;;;;;;;;;3.75;3.00;;;;;-146.67;36.36;74563.78;5100395;27;61823;-84
2023/07/06 07:19:14;;;;;;;;;6.25;3.00;;;;;-146.67;36.55;74563.78;5102891;27;62040;-83
2023/07/06 07:21:39;;;;;;;;;7.00;5.00;;;;;-146.67;36.67;74559.81;5102836;27;62083;-83
2023/07/06 07:24:05;;;;;;;;;6.25;3.00;;;;;-146.67;36.26;74563.78;5103419;27;61721;-84
2023/07/06 07:26:30;;;;;;;;;4.50;3.25;;;;;-146.67;36.37;74569.78;5101834;27;62075;-83
2023/07/06 07:28:56;;;;;;;;;3.00;1.50;;;;;-146.67;36.40;74575.78;5103495;27;61874;-83
2023/07/06 07:31:22;;;;;;;;;4.75;2.50;;;;;-146.67;36.90;74575.78;5101510;27;63453;-83
2023/07/06 07:33:48;;;;;;;;;3.00;2.00;;;;;-146.67;35.98;74577.78;5102866;27;61983;-84
2023/07/06 07:36:18;;;;;;;;;2.50;2.50;;;;;-146.67;36.20;74583.75;5101506;27;61898;-83
2023/07/06 07:38:46;;;;;;;;;2.25;2.25;;;;;-146.67;36.35;74595.75;5103472;27;61729;-75
2023/07/06 07:41:13;;;;;;;;;3.50;2.50;;;;;-146.67;36.59;74597.75;5102776;27;63195;-77
2023/07/06 07:43:42;;;;;;;;;4.50;2.50;;;;;-146.67;36.82;74589.75;5118980;27;62030;-76
2023/07/06 07:46:11;;;;;;;;;2.50;1.00;;;;;-146.67;36.61;74581.75;5103014;27;61941;-75
2023/07/06 07:48:40;;;;;;;;;4.50;3.25;;;;;-146.67;36.17;74575.78;5102482;27;61886;-76
2023/07/06 07:51:08;;;;;;;;;3.75;3.75;;;;;-146.67;36.14;74577.78;5102057;27;61923;-75
2023/07/06 07:53:37;;;;;;;;;6.50;4.00;;;;;-146.67;36.29;74581.75;5102893;27;61735;-76
2023/07/06 07:56:04;;;;;;;;;4.25;4.00;;;;;-146.67;36.07;74583.75;5102913;27;61702;-86
2023/07/06 07:58:31;;;;;;;;;2.00;2.00;;;;;-146.67;36.43;74587.75;5102056;27;61985;-84
2023/07/06 08:00:57;;;;;;;;;3.00;2.00;;;;;-146.67;36.26;74589.75;5102070;27;63195;-88
2023/07/06 08:03:27;;;;;;;;;3.50;3.50;;;;;-146.67;36.28;74585.75;5118882;27;61982;-83
2023/07/06 08:06:03;;;;;;;;;8.50;5.00;;;;;-146.67;36.20;74583.75;5102322;27;61802;-86
2023/07/06 08:08:32;;;;;;;;;6.50;5.00;;;;;-146.67;36.23;74575.78;5101426;27;61835;-84
2023/07/06 08:11:02;;;;;;;;;3.50;3.00;;;;;-146.67;36.28;74571.78;5101983;27;61893;-83
2023/07/06 08:13:27;;;;;;;;;4.00;3.50;;;;;-146.67;36.09;74569.78;5102898;27;61859;-82
2023/07/06 08:15:52;;;;;;;;;6.75;3.25;;;;;-146.67;36.37;74567.78;5100693;27;62121;-78
2023/07/06 08:18:18;;;;;;;;;4.25;3.00;;;;;-146.67;36.11;74565.78;5101843;27;61752;-84
2023/07/06 08:21:05;;;;;;;;;6.25;4.00;;;;;-146.67;36.42;74565.78;5100141;27;63751;-85
2023/07/06 08:23:31;;;;;;;;;6.75;4.00;;;;;-146.67;36.30;74561.81;5101907;27;61786;-86
2023/07/06 08:25:57;;;;;;;;;3.25;3.00;;;;;-146.67;36.47;74559.81;5100634;27;61746;-86
2023/07/06 08:28:31;;;;;;;;;7.75;6.00;;;;;-146.67;36.42;74563.78;5101430;27;61870;-85
2023/07/06 08:31:01;;;;;;;;;5.75;4.00;;;;;-146.67;36.12;74563.78;5102189;27;61982;-86
2023/07/06 08:33:27;;;;;;;;;3.50;2.75;;;;;-146.67;36.48;74553.81;5101075;27;61884;-86
2023/07/06 08:35:53;;;;;;;;;4.50;4.00;;;;;-146.67;36.14;74549.81;5100911;27;62074;-86
2023/07/06 08:38:19;;;;;;;;;4.00;4.00;;;;;-146.67;36.36;74547.81;5101343;27;61797;-86
2023/07/06 08:40:48;;;;;;;;;7.50;3.50;;;;;-146.67;36.31;74539.84;5102115;27;62410;-86
2023/07/06 08:43:20;;;;;;;;;6.00;4.25;;;;;-146.67;35.52;74543.84;5102213;27;62073;-86
2023/07/06 08:45:49;;;;;;;;;4.50;3.50;;;;;-146.67;36.29;74541.84;5101648;27;61993;-86
2023/07/06 08:48:41;;;;;;;;;8.25;5.00;;;;;-146.67;35.89;74547.81;5100430;27;62180;-86
2023/07/06 08:51:16;;;;;;;;;7.00;5.75;;;;;-146.67;35.85;74547.81;5089129;27;64092;-86
2023/07/06 08:53:50;;;;;;;;;11.00;4.00;;;;;-146.67;35.49;74529.84;5100819;27;62268;-86
2023/07/06 08:56:18;;;;;;;;;3.00;3.00;;;;;-146.67;35.55;74531.84;5100855;27;61950;-86
2023/07/06 08:58:44;;;;;;;;;6.25;4.25;;;;;-146.67;35.04;74527.84;5101275;27;61770;-87
2023/07/06 09:01:16;;;;;;;;;2.50;1.25;;;;;-146.67;34.97;74519.88;5099992;27;63649;-86
2023/07/06 09:03:57;;;;;;;;;4.00;4.00;;;;;-146.67;34.93;74525.88;5100789;27;62016;-87
2023/07/06 09:06:26;;;;;;;;;3.00;3.00;;;;;-146.67;34.90;74517.88;5101921;27;61785;-86
2023/07/06 09:08:54;;;;;;;;;4.25;4.25;;;;;-146.67;35.10;74511.88;5100257;27;62052;-86
2023/07/06 09:11:23;;;;;;;;;4.25;3.00;;;;;-146.67;34.55;74511.88;5103700;27;64030;-86
2023/07/06 09:13:51;;;;;;;;;6.00;4.75;;;;;-146.67;34.52;74519.88;5105672;27;61932;-87
2023/07/06 09:16:20;;;;;;;;;4.00;4.00;;;;;-146.67;35.05;74519.88;5103804;27;61962;-86
2023/07/06 09:18:52;;;;;;;;;8.25;4.50;;;;;-146.67;34.84;74501.91;5105371;27;61860;-86
2023/07/06 09:21:22;;;;;;;;;6.25;5.50;;;;;-146.67;34.31;74493.91;5103580;27;63874;-86
2023/07/06 09:23:47;;;;;;;;;8.25;4.50;;;;;-146.67;34.56;74483.94;5105381;27;61947;-87
2023/07/06 09:26:23;;;;;;;;;8.25;4.75;;;;;-146.67;34.31;74459.97;5104300;27;61972;-87
2023/07/06 09:28:48;;;;;;;;;5.75;4.00;;;;;-146.67;34.28;74452.00;5105737;27;61848;-86
2023/07/06 09:31:21;;;;;;;;;7.50;7.50;;;;;-146.67;34.56;74436.03;5103294;27;63344;-86
2023/07/06 09:33:49;;;;;;;;;5.25;4.00;;;;;-146.67;34.33;74438.03;5104077;27;62051;-86
2023/07/06 09:36:19;;;;;;;;;5.50;5.50;;;;;-146.67;34.21;74440.00;5105169;27;61962;-87
2023/07/06 09:38:45;;;;;;;;;4.00;4.00;;;;;-146.67;34.11;74430.03;5105356;27;61694;-86
2023/07/06 09:41:23;;;;;;;;;4.25;4.25;;;;;-146.67;33.94;74402.09;5104698;27;61805;-87
2023/07/06 09:43:57;;;;;;;;;6.75;4.00;;;;;-146.67;33.91;74364.16;5104905;27;61759;-86
2023/07/06 09:46:27;;;;;;;;;6.00;5.00;;;;;-146.67;33.71;74346.19;5103379;27;61992;-86
2023/07/06 09:48:53;;;;;;;;;5.50;4.50;;;;;-146.67;33.53;74342.19;5104895;27;61774;-86
2023/07/06 09:51:54;;;;;;;;;6.25;5.00;;;;;-146.67;33.14;74342.19;5104316;27;63072;-86
2023/07/06 09:54:25;;;;;;;;;7.25;4.75;;;;;-146.67;32.78;74322.22;5104797;27;61870;-87
2023/07/06 09:56:51;;;;;;;;;7.50;5.25;;;;;-146.67;32.92;74314.25;5105158;27;61915;-86
2023/07/06 09:59:17;;;;;;;;;3.75;3.50;;;;;-146.67;33.35;74286.28;5103962;27;62139;-86
2023/07/06 10:02:11;;;;;;;;;6.25;5.00;;;;;-146.67;32.74;74244.38;5103143;27;64096;-86
2023/07/06 10:04:39;;;;;;;;;5.25;4.00;;;;;-146.67;32.80;74218.41;5104515;27;62096;-86
2023/07/06 10:07:11;;;;;;;;;6.25;4.25;;;;;-146.67;32.55;74212.44;5103486;27;62127;-87
2023/07/06 10:09:43;;;;;;;;;6.50;5.00;;;;;-146.67;32.37;74186.47;5103602;27;61889;-86
2023/07/06 10:12:38;;;;;;;;;5.75;4.50;;;;;-146.67;32.30;74152.53;5104302;27;63115;-86
2023/07/06 10:15:14;;;;;;;;;4.50;4.50;;;;;-146.67;31.76;74128.59;5102850;27;61952;-86
2023/07/06 10:17:45;;;;;;;;;4.00;3.50;;;;;-146.67;31.93;74096.66;5104088;27;61791;-86
2023/07/06 10:20:34;;;;;;;;;9.00;4.75;;;;;-146.67;31.52;74058.72;5103155;27;62024;-86
2023/07/06 10:23:32;;;;;;;;;5.75;5.00;;;;;-146.67;31.11;74044.75;5103835;27;63172;-86
2023/07/06 10:26:07;;;;;;;;;2.75;2.75;;;;;-146.67;30.65;74014.81;5102982;27;61773;-86
2023/07/06 10:28:41;;;;;;;;;6.75;5.00;;;;;-146.67;30.79;74016.78;5102759;27;61892;-86
2023/07/06 10:31:12;;;;;;;;;3.25;3.25;;;;;-146.67;30.71;74004.81;5104565;27;61760;-86
2023/07/06 10:34:02;;;;;;;;;3.75;3.75;;;;;-146.67;30.57;73992.84;5103615;27;62778;-86
2023/07/06 10:36:32;;;;;;;;;3.00;3.00;;;;;-146.67;30.45;74012.81;5104323;27;61762;-86
2023/07/06 10:39:12;;;;;;;;;5.25;4.00;;;;;-146.67;29.64;74016.78;5102942;27;61910;-86
2023/07/06 10:41:41;;;;;;;;;5.00;2.00;;;;;-146.67;30.40;74012.81;5102892;27;61901;-86
2023/07/06 10:44:44;;;;;;;;;1.00;1.00;;;;;-146.67;30.41;73988.84;5103251;27;61809;-86
2023/07/06 10:47:28;;;;;;;;;4.25;3.00;;;;;-146.67;30.68;73954.91;5103850;27;62111;-87
2023/07/06 10:50:23;;;;;;;;;6.25;4.25;;;;;-146.67;30.34;74000.81;5102343;27;61883;-87
2023/07/06 10:53:03;;;;;;;;;5.00;5.00;;;;;-146.67;30.73;73998.84;5103602;27;61986;-87
2023/07/06 10:55:35;;;;;;;;;5.50;5.50;;;;;-146.67;30.09;73978.88;5101671;27;62614;-86
2023/07/06 10:58:26;;;;;;;;;6.00;4.75;;;;;-146.67;30.12;73948.94;5105605;27;61783;-85
2023/07/06 11:00:53;;;;;;;;;4.00;3.50;;;;;-146.67;29.95;73913.00;5103910;27;61920;-86
2023/07/06 11:03:23;;;;;;;;;3.67;3.67;;;;;-146.67;29.90;73885.06;5104221;27;62085;-87
2023/07/06 11:06:16;;;;;;;;;4.25;2.00;;;;;-146.67;29.68;73869.09;5102959;27;61864;-87
2023/07/06 11:09:10;;;;;;;;;5.75;4.25;;;;;-146.67;29.86;73865.09;5096448;27;61994;-87
2023/07/06 11:11:39;;;;;;;;;7.25;4.25;;;;;-146.67;29.30;73815.19;5102202;27;62000;-86
2023/07/06 11:14:31;;;;;;;;;3.33;3.33;;;;;-146.67;29.12;73775.25;5104298;27;61793;-87
2023/07/06 11:17:10;;;;;;;;;3.67;2.33;;;;;-146.67;27.82;73745.31;5100222;27;65112;-88
2023/07/06 11:19:42;;;;;;;;;3.33;3.33;;;;;-146.67;28.44;73715.38;5102298;27;61926;-88
2023/07/06 11:22:16;;;;;;;;;3.00;2.00;;;;;-146.67;27.23;73703.41;5104008;27;61976;-88
2023/07/06 11:24:48;;;;;;;;;4.33;2.67;;;;;-146.67;27.67;73693.44;5114212;27;61780;-86
2023/07/06 11:27:45;;;;;;;;;0.00;0.00;;;;;-146.67;27.58;73669.47;5121506;27;63790;-86